createdAt,value
2023-05-07T00:02:36.527Z,16.07
2023-05-07T00:06:21.173Z,15.07
2023-05-07T00:10:03.997Z,14.30
2023-05-07T00:13:46.881Z,14.57
2023-05-07T00:17:29.599Z,15.37
2023-05-07T00:21:12.982Z,13.63
2023-05-07T00:24:57.123Z,16.03
2023-05-07T00:28:40.320Z,14.53
2023-05-07T00:32:23.084Z,13.77
2023-05-07T00:36:06.441Z,9.73
2023-05-07T00:39:49.065Z,13.53
2023-05-07T00:43:33.089Z,13.67
2023-05-07T00:47:16.447Z,13.73
2023-05-07T00:50:59.270Z,10.77
2023-05-07T00:54:43.483Z,12.60
2023-05-07T00:58:26.200Z,10.70
2023-05-07T01:02:10.388Z,12.07
2023-05-07T01:05:53.309Z,11.33
2023-05-07T01:09:37.253Z,17.97
2023-05-07T01:13:20.119Z,11.67
2023-05-07T01:17:02.958Z,10.37
2023-05-07T01:20:47.359Z,10.67
2023-05-07T01:24:32.256Z,11.30
2023-05-07T01:28:14.964Z,11.20
2023-05-07T01:31:59.745Z,10.30
2023-05-07T01:35:47.893Z,8.23
2023-05-07T01:39:32.461Z,14.47
2023-05-07T01:43:15.349Z,9.70
2023-05-07T01:46:59.177Z,10.93
2023-05-07T01:50:41.870Z,11.13
2023-05-07T01:54:28.619Z,10.70
2023-05-07T01:58:15.289Z,9.87
2023-05-07T02:01:58.102Z,8.17
2023-05-07T02:05:40.808Z,10.63
2023-05-07T02:09:23.966Z,8.30
2023-05-07T02:13:17.374Z,8.30
2023-05-07T02:17:00.148Z,8.60
2023-05-07T02:20:42.802Z,7.40
2023-05-07T02:24:25.490Z,8.20
2023-05-07T02:28:08.187Z,8.07
2023-05-07T02:31:53.928Z,8.83
2023-05-07T02:35:36.705Z,7.80
2023-05-07T02:39:19.367Z,7.20
2023-05-07T02:43:02.058Z,7.33
2023-05-07T02:46:44.711Z,7.60
2023-05-07T02:50:28.800Z,9.17
2023-05-07T02:54:12.601Z,8.70
2023-05-07T02:57:55.331Z,7.53
2023-05-07T03:01:38.016Z,7.37
2023-05-07T03:05:20.973Z,9.17
2023-05-07T03:09:05.266Z,9.77
2023-05-07T03:12:47.934Z,7.00
2023-05-07T03:16:31.119Z,7.47
2023-05-07T03:20:14.303Z,9.90
2023-05-07T03:23:57.861Z,11.77
2023-05-07T03:27:42.841Z,7.30
2023-05-07T03:31:25.702Z,8.37
2023-05-07T03:35:08.822Z,6.23
2023-05-07T03:38:53.255Z,6.47
2023-05-07T03:42:36.157Z,7.57
2023-05-07T03:46:20.243Z,5.77
2023-05-07T03:50:02.998Z,8.53
2023-05-07T03:53:45.611Z,7.47
2023-05-07T03:57:28.259Z,6.77
2023-05-07T04:01:11.000Z,7.93
2023-05-07T04:04:55.504Z,8.40
2023-05-07T04:08:38.154Z,8.83
2023-05-07T04:12:20.862Z,6.90
2023-05-07T04:16:04.821Z,6.33
2023-05-07T04:19:47.849Z,6.90
2023-05-07T04:23:31.986Z,5.67
2023-05-07T04:27:14.611Z,7.23
2023-05-07T04:30:57.292Z,6.27
2023-05-07T04:34:39.949Z,7.43
2023-05-07T04:38:24.526Z,7.23
2023-05-07T04:42:09.832Z,5.43
2023-05-07T04:45:53.092Z,6.87
2023-05-07T04:49:35.908Z,7.60
2023-05-07T04:53:18.775Z,8.17
2023-05-07T04:57:01.481Z,6.63
2023-05-07T05:00:45.518Z,7.23
2023-05-07T05:04:28.364Z,8.03
2023-05-07T05:08:11.218Z,6.53
2023-05-07T05:11:53.881Z,6.40
2023-05-07T05:15:36.622Z,6.43
2023-05-07T05:19:20.768Z,6.10
2023-05-07T05:23:03.729Z,7.60
2023-05-07T05:26:46.452Z,7.10
2023-05-07T05:30:29.151Z,7.77
2023-05-07T05:34:11.854Z,6.73
2023-05-07T05:37:55.838Z,7.57
2023-05-07T05:41:38.518Z,6.53
2023-05-07T05:45:21.252Z,8.13
2023-05-07T05:49:03.912Z,7.17
2023-05-07T05:52:46.561Z,6.87
2023-05-07T05:56:31.097Z,6.97
2023-05-07T06:00:14.886Z,6.57
2023-05-07T06:03:58.151Z,7.00
2023-05-07T06:07:40.860Z,5.93
2023-05-07T06:11:23.615Z,5.67
2023-05-07T06:15:08.801Z,8.37
2023-05-07T06:18:51.471Z,7.27
2023-05-07T06:22:34.216Z,5.10
2023-05-07T06:26:16.834Z,5.20
2023-05-07T06:29:59.490Z,8.10
2023-05-07T06:33:43.804Z,6.37
2023-05-07T06:37:26.817Z,6.60
2023-05-07T06:41:09.569Z,6.30
2023-05-07T06:44:52.237Z,4.87
2023-05-07T06:48:34.934Z,5.27
2023-05-07T06:52:18.966Z,5.10
2023-05-07T06:56:01.618Z,5.20
2023-05-07T06:59:44.294Z,5.47
2023-05-07T07:03:27.064Z,4.27
2023-05-07T07:07:09.823Z,4.00
2023-05-07T07:10:53.898Z,6.40
2023-05-07T07:14:36.871Z,4.07
2023-05-07T07:18:19.546Z,4.67
2023-05-07T07:22:02.187Z,5.20
2023-05-07T07:25:44.890Z,5.17
2023-05-07T07:29:28.948Z,5.97
2023-05-07T07:33:14.402Z,4.33
2023-05-07T07:36:57.232Z,7.43
2023-05-07T07:40:39.915Z,5.70
2023-05-07T07:44:22.634Z,5.67
2023-05-07T07:48:07.360Z,7.07
2023-05-07T07:51:50.125Z,4.80
2023-05-07T07:55:33.209Z,4.43
2023-05-07T07:59:19.632Z,4.93
2023-05-07T08:03:04.176Z,7.43
2023-05-07T08:06:48.390Z,4.70
2023-05-07T08:10:35.301Z,5.18
2023-05-07T08:14:18.109Z,3.92
2023-05-07T08:18:01.385Z,8.93
2023-05-07T08:21:44.100Z,6.40
2023-05-07T08:25:28.356Z,4.90
2023-05-07T08:29:11.107Z,5.63
2023-05-07T08:32:53.845Z,5.53
2023-05-07T08:36:36.561Z,7.27
2023-05-07T08:40:19.617Z,4.75
2023-05-07T08:44:05.569Z,5.73
2023-05-07T08:47:49.564Z,4.53
2023-05-07T08:51:32.371Z,5.33
2023-05-07T08:55:16.104Z,6.03
2023-05-07T08:58:59.870Z,4.30
2023-05-07T09:02:44.144Z,5.97
2023-05-07T09:06:27.673Z,3.37
2023-05-07T09:10:11.306Z,4.45
2023-05-07T09:13:56.500Z,6.07
2023-05-07T09:17:39.315Z,6.63
2023-05-07T09:21:23.911Z,6.90
2023-05-07T09:25:08.039Z,8.13
2023-05-07T09:28:50.773Z,3.38
2023-05-07T09:32:36.676Z,3.50
2023-05-07T09:36:20.183Z,3.28
2023-05-07T09:40:07.806Z,2.55
2023-05-07T09:43:55.987Z,3.45
2023-05-07T09:47:39.572Z,2.90
2023-05-07T09:51:31.107Z,5.55
2023-05-07T09:55:15.525Z,4.05
2023-05-07T09:58:59.858Z,3.47
2023-05-07T10:02:47.543Z,6.00
2023-05-07T10:06:31.296Z,16.90
2023-05-07T10:10:16.498Z,5.05
2023-05-07T10:13:59.456Z,7.38
2023-05-07T10:17:42.674Z,8.30
2023-05-07T10:21:25.995Z,7.20
2023-05-07T10:25:12.947Z,4.05
2023-05-07T10:29:01.954Z,4.43
2023-05-07T10:32:47.352Z,5.38
2023-05-07T10:36:30.236Z,5.75
2023-05-07T10:40:14.936Z,5.20
2023-05-07T10:44:02.257Z,3.78
2023-05-07T10:48:27.171Z,3.13
2023-05-07T10:52:15.871Z,3.33
2023-05-07T10:56:26.884Z,6.57
2023-05-07T11:00:52.264Z,4.43
2023-05-07T11:04:36.661Z,2.88
2023-05-07T11:08:19.608Z,3.75
2023-05-07T11:12:02.334Z,4.82
2023-05-07T11:15:46.895Z,2.83
2023-05-07T11:19:53.553Z,3.10
2023-05-07T11:24:01.371Z,3.80
2023-05-07T11:27:44.289Z,3.72
2023-05-07T11:31:29.404Z,4.65
2023-05-07T11:35:13.800Z,3.85
2023-05-07T11:38:57.107Z,3.15
2023-05-07T11:42:43.889Z,3.15
2023-05-07T11:46:27.256Z,3.80
2023-05-07T11:50:11.617Z,4.25
2023-05-07T11:53:55.982Z,3.63
2023-05-07T11:57:38.738Z,5.35
2023-05-07T12:01:21.521Z,6.13
2023-05-07T12:05:06.494Z,6.50
2023-05-07T12:08:49.341Z,3.08
2023-05-07T12:12:33.588Z,6.15
2023-05-07T12:16:19.235Z,3.42
2023-05-07T12:20:05.801Z,3.80
2023-05-07T12:23:48.966Z,5.72
2023-05-07T12:27:33.257Z,3.30
2023-05-07T12:31:16.795Z,6.43
2023-05-07T12:34:59.707Z,6.57
2023-05-07T12:38:42.701Z,7.05
2023-05-07T12:42:27.285Z,6.55
2023-05-07T12:46:11.777Z,4.53
2023-05-07T12:49:56.630Z,4.82
2023-05-07T12:53:44.628Z,3.03
2023-05-07T12:57:27.629Z,4.28
2023-05-07T13:01:16.558Z,3.15
2023-05-07T13:05:06.540Z,4.18
2023-05-07T13:08:49.439Z,2.90
2023-05-07T13:12:32.282Z,4.15
2023-05-07T13:16:22.410Z,3.65
2023-05-07T13:20:06.582Z,2.80
2023-05-07T13:23:49.264Z,3.47
2023-05-07T13:27:32.089Z,3.58
2023-05-07T13:31:16.169Z,3.88
2023-05-07T13:34:58.865Z,4.22
2023-05-07T13:38:41.661Z,2.92
2023-05-07T13:42:24.408Z,2.25
2023-05-07T13:46:07.210Z,3.65
2023-05-07T13:49:51.553Z,2.50
2023-05-07T13:53:34.381Z,2.65
2023-05-07T13:57:17.173Z,1.88
2023-05-07T14:00:59.868Z,1.65
2023-05-07T14:04:42.657Z,2.08
2023-05-07T14:08:26.704Z,6.15
2023-05-07T14:12:09.630Z,3.00
2023-05-07T14:15:52.369Z,3.03
2023-05-07T14:19:35.004Z,4.70
2023-05-07T14:23:18.687Z,3.40
2023-05-07T14:27:02.742Z,3.97
2023-05-07T14:30:45.773Z,3.33
2023-05-07T14:34:28.526Z,2.25
2023-05-07T14:38:11.170Z,4.32
2023-05-07T14:41:55.631Z,1.98
2023-05-07T14:45:39.771Z,4.25
2023-05-07T14:49:22.543Z,5.03
2023-05-07T14:53:05.325Z,5.93
2023-05-07T14:56:48.028Z,6.20
2023-05-07T15:00:30.743Z,3.55
2023-05-07T15:04:14.922Z,4.10
2023-05-07T15:07:57.830Z,3.58
2023-05-07T15:11:40.726Z,3.13
2023-05-07T15:15:23.378Z,2.75
2023-05-07T15:19:06.110Z,3.40
2023-05-07T15:22:50.084Z,6.13
2023-05-07T15:26:32.719Z,2.92
2023-05-07T15:30:16.188Z,2.90
2023-05-07T15:33:58.832Z,3.50
2023-05-07T15:37:41.462Z,4.60
2023-05-07T15:41:26.794Z,2.92
2023-05-07T15:45:11.895Z,4.03
2023-05-07T15:48:55.239Z,2.72
2023-05-07T15:52:39.081Z,3.97
2023-05-07T15:56:21.742Z,4.65
2023-05-07T16:00:09.477Z,3.95
2023-05-07T16:03:52.260Z,6.07
2023-05-07T16:07:34.963Z,3.72
2023-05-07T16:11:20.303Z,5.30
2023-05-07T16:15:03.184Z,3.47
2023-05-07T16:18:47.241Z,5.28
2023-05-07T16:22:30.252Z,3.80
2023-05-07T16:26:14.509Z,2.80
2023-05-07T16:29:58.327Z,2.33
2023-05-07T16:33:41.114Z,8.18
2023-05-07T16:37:25.139Z,3.63
2023-05-07T16:41:07.894Z,3.78
2023-05-07T16:44:50.526Z,5.30
2023-05-07T16:48:33.174Z,3.10
2023-05-07T16:52:15.881Z,3.90
2023-05-07T16:55:59.978Z,2.53
2023-05-07T16:59:42.759Z,3.08
2023-05-07T17:03:25.660Z,3.30
2023-05-07T17:07:08.415Z,3.22
2023-05-07T17:10:51.073Z,4.15
2023-05-07T17:14:35.156Z,4.68
2023-05-07T17:18:17.866Z,2.47
2023-05-07T17:22:00.595Z,4.97
2023-05-07T17:25:46.435Z,5.03
2023-05-07T17:29:30.892Z,4.82
2023-05-07T17:33:21.669Z,32.90
2023-05-07T17:37:05.093Z,2.95
2023-05-07T17:40:48.466Z,5.50
2023-05-07T17:44:31.226Z,3.92
2023-05-07T17:48:15.312Z,2.58
2023-05-07T17:51:58.107Z,2.40
2023-05-07T17:55:43.571Z,5.88
2023-05-07T17:59:26.271Z,3.92
2023-05-07T18:03:09.041Z,3.80
2023-05-07T18:06:53.176Z,2.90
2023-05-07T18:10:35.876Z,3.95
2023-05-07T18:14:18.503Z,3.67
2023-05-07T18:18:01.301Z,2.85
2023-05-07T18:21:44.709Z,2.83
2023-05-07T18:25:28.705Z,3.08
2023-05-07T18:29:11.387Z,2.38
2023-05-07T18:32:54.072Z,2.22
2023-05-07T18:36:36.949Z,3.13
2023-05-07T18:40:21.022Z,3.97
2023-05-07T18:44:05.222Z,7.43
2023-05-07T18:47:48.436Z,5.28
2023-05-07T18:51:31.249Z,3.28
2023-05-07T18:55:13.888Z,4.63
2023-05-07T18:58:56.553Z,3.60
2023-05-07T19:02:40.712Z,4.47
2023-05-07T19:06:23.397Z,2.90
2023-05-07T19:10:07.080Z,3.55
2023-05-07T19:13:49.839Z,3.00
2023-05-07T19:17:32.537Z,4.57
2023-05-07T19:21:16.581Z,3.97
2023-05-07T19:24:59.336Z,2.85
2023-05-07T19:28:45.263Z,4.47
2023-05-07T19:32:31.044Z,2.90
2023-05-07T19:36:13.788Z,3.30
2023-05-07T19:39:57.897Z,3.53
2023-05-07T19:43:41.060Z,6.68
2023-05-07T19:47:24.032Z,10.77
2023-05-07T19:51:06.770Z,7.78
2023-05-07T19:54:49.467Z,5.40
2023-05-07T19:58:33.763Z,7.60
2023-05-07T20:02:16.551Z,5.80
2023-05-07T20:05:59.829Z,7.53
2023-05-07T20:09:42.591Z,7.10
2023-05-07T20:13:26.827Z,5.82
2023-05-07T20:17:11.213Z,7.03
2023-05-07T20:20:53.821Z,6.20
2023-05-07T20:24:38.985Z,5.50
2023-05-07T20:28:22.054Z,10.27
2023-05-07T20:32:05.087Z,9.48
2023-05-07T20:35:49.386Z,10.80
2023-05-07T20:39:32.057Z,7.10
2023-05-07T20:43:14.773Z,6.37
2023-05-07T20:46:57.493Z,6.87
2023-05-07T20:50:40.183Z,7.15
2023-05-07T20:54:24.227Z,6.90
2023-05-07T20:58:06.910Z,9.20
2023-05-07T21:01:49.617Z,7.53
2023-05-07T21:05:32.408Z,7.13
2023-05-07T21:09:15.409Z,7.03
2023-05-07T21:12:59.561Z,7.27
2023-05-07T21:16:43.209Z,17.95
2023-05-07T21:20:26.144Z,8.20
2023-05-07T21:24:09.521Z,6.97
2023-05-07T21:27:53.201Z,11.45
2023-05-07T21:31:37.435Z,8.53
2023-05-07T21:35:20.274Z,8.00
2023-05-07T21:39:03.503Z,7.80
2023-05-07T21:42:46.653Z,9.35
2023-05-07T21:46:29.503Z,9.02
2023-05-07T21:50:13.915Z,7.47
2023-05-07T21:53:57.183Z,8.05
2023-05-07T21:57:41.977Z,7.72
2023-05-07T22:01:29.538Z,7.33
2023-05-07T22:05:13.749Z,9.10
2023-05-07T22:08:56.516Z,8.65
2023-05-07T22:12:39.540Z,9.43
2023-05-07T22:16:22.713Z,9.45
2023-05-07T22:20:06.504Z,11.37
2023-05-07T22:23:50.559Z,10.50
2023-05-07T22:27:33.279Z,10.82
2023-05-07T22:31:15.984Z,9.77
2023-05-07T22:34:58.725Z,9.90
2023-05-07T22:38:41.525Z,9.73
2023-05-07T22:42:25.663Z,10.17
2023-05-07T22:46:08.669Z,12.03
2023-05-07T22:49:51.570Z,10.60
2023-05-07T22:53:34.233Z,10.00
2023-05-07T22:57:16.871Z,10.00
2023-05-07T23:01:00.971Z,9.65
2023-05-07T23:04:43.633Z,9.17
2023-05-07T23:08:26.303Z,8.88
2023-05-07T23:12:09.647Z,10.07
2023-05-07T23:15:52.329Z,9.93
2023-05-07T23:19:37.040Z,10.90
2023-05-07T23:23:19.730Z,12.33
2023-05-07T23:27:05.511Z,10.00
2023-05-07T23:30:48.256Z,9.80
2023-05-07T23:34:31.170Z,10.73
2023-05-07T23:38:15.168Z,11.33
2023-05-07T23:41:57.959Z,10.47
2023-05-07T23:45:40.719Z,10.23
2023-05-07T23:49:23.459Z,9.80
2023-05-07T23:53:06.118Z,11.40
2023-05-07T23:56:50.238Z,11.60
